sensor_id;sensor_type;location;lat;lon;timestamp;temperature;humidity
11446;DHT22;5779;64.178;15.432;2023-07-20T00:01:08;10.50;99.90
11446;DHT22;5779;64.178;15.432;2023-07-20T00:03:55;10.50;99.90
11446;DHT22;5779;64.178;15.432;2023-07-20T00:06:42;10.40;99.90
11446;DHT22;5779;64.178;15.432;2023-07-20T00:09:28;10.50;99.90
11446;DHT22;5779;64.178;15.432;2023-07-20T00:12:15;10.80;99.90
11446;DHT22;5779;64.178;15.432;2023-07-20T00:15:03;10.50;99.90
11446;DHT22;5779;64.178;15.432;2023-07-20T00:17:52;10.40;99.90
11446;DHT22;5779;64.178;15.432;2023-07-20T00:20:39;10.50;99.90
11446;DHT22;5779;64.178;15.432;2023-07-20T00:23:26;10.40;99.90
11446;DHT22;5779;64.178;15.432;2023-07-20T00:26:13;10.40;99.90
11446;DHT22;5779;64.178;15.432;2023-07-20T00:29:00;10.50;99.90
11446;DHT22;5779;64.178;15.432;2023-07-20T00:31:47;10.60;99.90
11446;DHT22;5779;64.178;15.432;2023-07-20T00:34:36;10.40;99.90
11446;DHT22;5779;64.178;15.432;2023-07-20T00:37:23;10.10;99.90
11446;DHT22;5779;64.178;15.432;2023-07-20T00:40:10;9.90;99.90
11446;DHT22;5779;64.178;15.432;2023-07-20T00:42:57;9.80;99.90
11446;DHT22;5779;64.178;15.432;2023-07-20T00:45:44;9.70;99.90
11446;DHT22;5779;64.178;15.432;2023-07-20T00:48:31;9.50;99.90
11446;DHT22;5779;64.178;15.432;2023-07-20T00:51:20;9.40;99.90
11446;DHT22;5779;64.178;15.432;2023-07-20T00:54:07;9.40;99.90
11446;DHT22;5779;64.178;15.432;2023-07-20T00:56:55;9.40;99.90
11446;DHT22;5779;64.178;15.432;2023-07-20T00:59:42;9.40;99.90
11446;DHT22;5779;64.178;15.432;2023-07-20T01:02:28;9.30;99.90
11446;DHT22;5779;64.178;15.432;2023-07-20T01:05:15;9.30;99.90
11446;DHT22;5779;64.178;15.432;2023-07-20T01:08:09;9.10;99.90
11446;DHT22;5779;64.178;15.432;2023-07-20T01:11:02;9.20;99.90
11446;DHT22;5779;64.178;15.432;2023-07-20T01:13:52;9.10;99.90
11446;DHT22;5779;64.178;15.432;2023-07-20T01:16:39;9.20;99.90
11446;DHT22;5779;64.178;15.432;2023-07-20T01:19:26;9.30;99.90
11446;DHT22;5779;64.178;15.432;2023-07-20T01:22:40;9.20;99.90
11446;DHT22;5779;64.178;15.432;2023-07-20T01:25:51;9.10;99.90
11446;DHT22;5779;64.178;15.432;2023-07-20T01:29:11;9.10;99.90
11446;DHT22;5779;64.178;15.432;2023-07-20T01:32:05;9.20;99.90
11446;DHT22;5779;64.178;15.432;2023-07-20T01:34:54;9.20;99.90
11446;DHT22;5779;64.178;15.432;2023-07-20T01:37:46;9.10;99.90
11446;DHT22;5779;64.178;15.432;2023-07-20T01:40:34;9.00;99.90
11446;DHT22;5779;64.178;15.432;2023-07-20T01:43:22;8.90;99.90
11446;DHT22;5779;64.178;15.432;2023-07-20T01:46:08;9.00;99.90
11446;DHT22;5779;64.178;15.432;2023-07-20T01:48:57;9.10;99.90
11446;DHT22;5779;64.178;15.432;2023-07-20T01:51:44;9.20;99.90
11446;DHT22;5779;64.178;15.432;2023-07-20T01:54:31;9.10;99.90
11446;DHT22;5779;64.178;15.432;2023-07-20T01:57:18;9.00;99.90
11446;DHT22;5779;64.178;15.432;2023-07-20T02:00:07;9.10;99.90
11446;DHT22;5779;64.178;15.432;2023-07-20T02:02:54;9.10;99.90
11446;DHT22;5779;64.178;15.432;2023-07-20T02:05:44;9.20;99.90
11446;DHT22;5779;64.178;15.432;2023-07-20T02:08:31;9.20;99.90
11446;DHT22;5779;64.178;15.432;2023-07-20T02:11:18;9.20;99.90
11446;DHT22;5779;64.178;15.432;2023-07-20T02:14:04;9.30;99.90
11446;DHT22;5779;64.178;15.432;2023-07-20T02:16:51;9.20;99.90
11446;DHT22;5779;64.178;15.432;2023-07-20T02:19:42;9.20;99.90
11446;DHT22;5779;64.178;15.432;2023-07-20T02:22:31;9.20;99.90
11446;DHT22;5779;64.178;15.432;2023-07-20T02:25:18;9.20;99.90
11446;DHT22;5779;64.178;15.432;2023-07-20T02:28:06;9.20;99.90
11446;DHT22;5779;64.178;15.432;2023-07-20T02:30:53;9.30;99.90
11446;DHT22;5779;64.178;15.432;2023-07-20T02:33:40;9.30;99.90
11446;DHT22;5779;64.178;15.432;2023-07-20T02:36:27;9.50;99.90
11446;DHT22;5779;64.178;15.432;2023-07-20T02:39:15;9.50;99.90
11446;DHT22;5779;64.178;15.432;2023-07-20T02:42:02;9.60;99.90
11446;DHT22;5779;64.178;15.432;2023-07-20T02:44:49;9.30;99.90
11446;DHT22;5779;64.178;15.432;2023-07-20T02:47:36;9.20;99.90
11446;DHT22;5779;64.178;15.432;2023-07-20T02:50:23;9.10;99.90
11446;DHT22;5779;64.178;15.432;2023-07-20T02:53:10;9.00;99.90
11446;DHT22;5779;64.178;15.432;2023-07-20T02:55:59;8.80;99.90
11446;DHT22;5779;64.178;15.432;2023-07-20T02:58:46;8.90;99.90
11446;DHT22;5779;64.178;15.432;2023-07-20T03:01:33;8.70;99.90
11446;DHT22;5779;64.178;15.432;2023-07-20T03:04:19;8.50;99.90
11446;DHT22;5779;64.178;15.432;2023-07-20T03:07:07;8.60;99.90
11446;DHT22;5779;64.178;15.432;2023-07-20T03:09:53;8.40;99.90
11446;DHT22;5779;64.178;15.432;2023-07-20T03:12:42;8.30;99.90
11446;DHT22;5779;64.178;15.432;2023-07-20T03:15:29;8.50;99.90
11446;DHT22;5779;64.178;15.432;2023-07-20T03:18:16;8.50;99.90
11446;DHT22;5779;64.178;15.432;2023-07-20T03:21:03;8.50;99.90
11446;DHT22;5779;64.178;15.432;2023-07-20T03:23:50;8.50;99.90
11446;DHT22;5779;64.178;15.432;2023-07-20T03:26:37;8.50;99.90
11446;DHT22;5779;64.178;15.432;2023-07-20T03:29:25;8.60;99.90
11446;DHT22;5779;64.178;15.432;2023-07-20T03:32:12;8.60;99.90
11446;DHT22;5779;64.178;15.432;2023-07-20T03:34:58;8.70;99.90
11446;DHT22;5779;64.178;15.432;2023-07-20T03:37:46;8.70;99.90
11446;DHT22;5779;64.178;15.432;2023-07-20T03:40:33;9.00;99.90
11446;DHT22;5779;64.178;15.432;2023-07-20T03:43:20;9.30;99.90
11446;DHT22;5779;64.178;15.432;2023-07-20T03:46:08;9.50;99.90
11446;DHT22;5779;64.178;15.432;2023-07-20T03:48:55;9.70;99.90
11446;DHT22;5779;64.178;15.432;2023-07-20T03:51:42;9.90;99.90
11446;DHT22;5779;64.178;15.432;2023-07-20T03:54:29;10.10;99.90
11446;DHT22;5779;64.178;15.432;2023-07-20T03:57:16;10.30;99.90
11446;DHT22;5779;64.178;15.432;2023-07-20T04:00:04;10.40;99.90
11446;DHT22;5779;64.178;15.432;2023-07-20T04:02:54;10.50;99.90
11446;DHT22;5779;64.178;15.432;2023-07-20T04:05:42;10.60;99.90
11446;DHT22;5779;64.178;15.432;2023-07-20T04:08:29;10.70;99.90
11446;DHT22;5779;64.178;15.432;2023-07-20T04:11:15;10.90;99.90
11446;DHT22;5779;64.178;15.432;2023-07-20T04:14:03;10.90;99.90
11446;DHT22;5779;64.178;15.432;2023-07-20T04:16:50;11.00;99.90
11446;DHT22;5779;64.178;15.432;2023-07-20T04:19:39;11.10;99.90
11446;DHT22;5779;64.178;15.432;2023-07-20T04:22:26;11.40;99.90
11446;DHT22;5779;64.178;15.432;2023-07-20T04:25:13;11.50;99.90
11446;DHT22;5779;64.178;15.432;2023-07-20T04:28:00;11.60;99.90
11446;DHT22;5779;64.178;15.432;2023-07-20T04:30:49;11.70;99.90
11446;DHT22;5779;64.178;15.432;2023-07-20T04:33:37;11.80;99.90
11446;DHT22;5779;64.178;15.432;2023-07-20T04:36:25;11.90;99.90
11446;DHT22;5779;64.178;15.432;2023-07-20T04:39:12;11.90;99.90
11446;DHT22;5779;64.178;15.432;2023-07-20T04:41:59;12.00;99.90
11446;DHT22;5779;64.178;15.432;2023-07-20T04:44:46;12.00;99.90
11446;DHT22;5779;64.178;15.432;2023-07-20T04:47:33;12.00;99.90
11446;DHT22;5779;64.178;15.432;2023-07-20T04:50:20;12.00;99.90
11446;DHT22;5779;64.178;15.432;2023-07-20T04:53:09;12.10;99.90
11446;DHT22;5779;64.178;15.432;2023-07-20T04:55:56;12.00;99.90
11446;DHT22;5779;64.178;15.432;2023-07-20T04:58:43;12.20;99.90
11446;DHT22;5779;64.178;15.432;2023-07-20T05:01:30;12.30;99.90
11446;DHT22;5779;64.178;15.432;2023-07-20T05:04:17;12.50;99.90
11446;DHT22;5779;64.178;15.432;2023-07-20T05:07:04;12.50;99.90
11446;DHT22;5779;64.178;15.432;2023-07-20T05:09:53;12.60;99.90
11446;DHT22;5779;64.178;15.432;2023-07-20T05:12:40;12.60;99.90
11446;DHT22;5779;64.178;15.432;2023-07-20T05:15:27;12.60;99.90
11446;DHT22;5779;64.178;15.432;2023-07-20T05:18:14;12.80;99.90
11446;DHT22;5779;64.178;15.432;2023-07-20T05:21:05;12.90;99.90
11446;DHT22;5779;64.178;15.432;2023-07-20T05:23:53;13.00;99.90
11446;DHT22;5779;64.178;15.432;2023-07-20T05:26:41;13.00;99.90
11446;DHT22;5779;64.178;15.432;2023-07-20T05:29:28;13.00;99.90
11446;DHT22;5779;64.178;15.432;2023-07-20T05:32:15;13.20;99.90
11446;DHT22;5779;64.178;15.432;2023-07-20T05:35:02;13.20;99.90
11446;DHT22;5779;64.178;15.432;2023-07-20T05:37:49;13.40;99.90
11446;DHT22;5779;64.178;15.432;2023-07-20T05:40:37;13.30;99.90
11446;DHT22;5779;64.178;15.432;2023-07-20T05:43:26;13.50;99.90
11446;DHT22;5779;64.178;15.432;2023-07-20T05:46:13;13.60;99.90
11446;DHT22;5779;64.178;15.432;2023-07-20T05:49:00;13.40;99.90
11446;DHT22;5779;64.178;15.432;2023-07-20T05:51:47;13.60;99.90
11446;DHT22;5779;64.178;15.432;2023-07-20T05:54:34;13.90;99.90
11446;DHT22;5779;64.178;15.432;2023-07-20T05:57:21;13.80;99.90
11446;DHT22;5779;64.178;15.432;2023-07-20T06:00:11;13.80;99.90
11446;DHT22;5779;64.178;15.432;2023-07-20T06:02:58;13.80;99.90
11446;DHT22;5779;64.178;15.432;2023-07-20T06:05:45;13.80;99.90
11446;DHT22;5779;64.178;15.432;2023-07-20T06:08:32;13.90;99.90
11446;DHT22;5779;64.178;15.432;2023-07-20T06:11:19;13.70;99.90
11446;DHT22;5779;64.178;15.432;2023-07-20T06:14:06;13.70;99.90
11446;DHT22;5779;64.178;15.432;2023-07-20T06:16:54;13.80;99.90
11446;DHT22;5779;64.178;15.432;2023-07-20T06:19:41;13.80;99.90
11446;DHT22;5779;64.178;15.432;2023-07-20T06:22:28;13.80;99.90
11446;DHT22;5779;64.178;15.432;2023-07-20T06:25:15;13.80;99.90
11446;DHT22;5779;64.178;15.432;2023-07-20T06:28:02;13.80;99.90
11446;DHT22;5779;64.178;15.432;2023-07-20T06:30:50;13.80;99.90
11446;DHT22;5779;64.178;15.432;2023-07-20T06:33:38;14.00;99.90
11446;DHT22;5779;64.178;15.432;2023-07-20T06:36:25;14.30;99.90
11446;DHT22;5779;64.178;15.432;2023-07-20T06:39:13;14.50;99.90
11446;DHT22;5779;64.178;15.432;2023-07-20T06:42:00;14.30;99.90
11446;DHT22;5779;64.178;15.432;2023-07-20T06:44:47;14.20;99.90
11446;DHT22;5779;64.178;15.432;2023-07-20T06:47:34;14.30;99.90
11446;DHT22;5779;64.178;15.432;2023-07-20T06:50:23;14.50;99.90
11446;DHT22;5779;64.178;15.432;2023-07-20T06:53:10;14.60;99.90
11446;DHT22;5779;64.178;15.432;2023-07-20T06:55:57;14.60;99.90
11446;DHT22;5779;64.178;15.432;2023-07-20T06:58:44;14.70;99.90
11446;DHT22;5779;64.178;15.432;2023-07-20T07:01:30;14.80;99.90
11446;DHT22;5779;64.178;15.432;2023-07-20T07:04:17;14.70;99.90
11446;DHT22;5779;64.178;15.432;2023-07-20T07:07:06;14.50;99.90
11446;DHT22;5779;64.178;15.432;2023-07-20T07:09:53;14.70;99.90
11446;DHT22;5779;64.178;15.432;2023-07-20T07:12:40;14.90;99.90
11446;DHT22;5779;64.178;15.432;2023-07-20T07:15:27;15.20;99.90
11446;DHT22;5779;64.178;15.432;2023-07-20T07:18:13;15.50;99.90
11446;DHT22;5779;64.178;15.432;2023-07-20T07:21:00;15.70;99.90
11446;DHT22;5779;64.178;15.432;2023-07-20T07:23:49;15.80;99.90
11446;DHT22;5779;64.178;15.432;2023-07-20T07:26:38;16.00;99.90
11446;DHT22;5779;64.178;15.432;2023-07-20T07:29:25;16.00;99.90
11446;DHT22;5779;64.178;15.432;2023-07-20T07:32:12;16.00;99.90
11446;DHT22;5779;64.178;15.432;2023-07-20T07:34:58;15.60;99.90
11446;DHT22;5779;64.178;15.432;2023-07-20T07:37:45;15.70;99.90
11446;DHT22;5779;64.178;15.432;2023-07-20T07:40:34;15.90;99.90
11446;DHT22;5779;64.178;15.432;2023-07-20T07:43:20;16.00;99.90
11446;DHT22;5779;64.178;15.432;2023-07-20T07:46:07;16.10;99.90
11446;DHT22;5779;64.178;15.432;2023-07-20T07:48:54;16.50;99.90
11446;DHT22;5779;64.178;15.432;2023-07-20T07:51:41;16.60;99.90
11446;DHT22;5779;64.178;15.432;2023-07-20T07:54:28;16.50;99.90
11446;DHT22;5779;64.178;15.432;2023-07-20T07:57:16;16.50;99.90
11446;DHT22;5779;64.178;15.432;2023-07-20T08:00:05;16.70;99.90
11446;DHT22;5779;64.178;15.432;2023-07-20T08:02:56;16.80;99.90
11446;DHT22;5779;64.178;15.432;2023-07-20T08:05:43;17.00;99.90
11446;DHT22;5779;64.178;15.432;2023-07-20T08:08:31;16.80;99.90
11446;DHT22;5779;64.178;15.432;2023-07-20T08:11:18;17.00;99.90
11446;DHT22;5779;64.178;15.432;2023-07-20T08:14:06;17.10;99.90
11446;DHT22;5779;64.178;15.432;2023-07-20T08:16:53;17.10;99.90
11446;DHT22;5779;64.178;15.432;2023-07-20T08:19:40;17.50;99.90
11446;DHT22;5779;64.178;15.432;2023-07-20T08:22:27;17.80;99.90
11446;DHT22;5779;64.178;15.432;2023-07-20T08:25:14;17.80;99.90
11446;DHT22;5779;64.178;15.432;2023-07-20T08:28:01;17.90;99.90
11446;DHT22;5779;64.178;15.432;2023-07-20T08:30:50;18.10;99.90
11446;DHT22;5779;64.178;15.432;2023-07-20T08:33:37;18.30;99.90
11446;DHT22;5779;64.178;15.432;2023-07-20T08:36:24;18.50;99.90
11446;DHT22;5779;64.178;15.432;2023-07-20T08:39:12;18.60;99.90
11446;DHT22;5779;64.178;15.432;2023-07-20T08:42:00;18.40;99.90
11446;DHT22;5779;64.178;15.432;2023-07-20T08:44:52;18.40;99.90
11446;DHT22;5779;64.178;15.432;2023-07-20T08:47:42;18.00;99.90
11446;DHT22;5779;64.178;15.432;2023-07-20T08:50:30;18.20;99.90
11446;DHT22;5779;64.178;15.432;2023-07-20T08:53:18;18.40;99.90
11446;DHT22;5779;64.178;15.432;2023-07-20T08:56:05;18.50;99.90
11446;DHT22;5779;64.178;15.432;2023-07-20T08:58:54;18.10;99.90
11446;DHT22;5779;64.178;15.432;2023-07-20T09:01:42;18.20;99.90
11446;DHT22;5779;64.178;15.432;2023-07-20T09:04:31;18.50;99.90
11446;DHT22;5779;64.178;15.432;2023-07-20T09:07:19;18.80;99.90
11446;DHT22;5779;64.178;15.432;2023-07-20T09:10:07;18.70;99.90
11446;DHT22;5779;64.178;15.432;2023-07-20T09:12:54;18.30;99.90
11446;DHT22;5779;64.178;15.432;2023-07-20T09:15:46;18.20;99.90
11446;DHT22;5779;64.178;15.432;2023-07-20T09:18:34;18.30;99.90
11446;DHT22;5779;64.178;15.432;2023-07-20T09:21:22;17.90;99.90
11446;DHT22;5779;64.178;15.432;2023-07-20T09:24:09;18.00;99.90
11446;DHT22;5779;64.178;15.432;2023-07-20T09:26:56;18.20;99.90
11446;DHT22;5779;64.178;15.432;2023-07-20T09:29:50;18.40;99.90
11446;DHT22;5779;64.178;15.432;2023-07-20T09:32:39;18.40;99.90
11446;DHT22;5779;64.178;15.432;2023-07-20T09:35:28;18.30;99.90
11446;DHT22;5779;64.178;15.432;2023-07-20T09:38:17;18.70;99.90
11446;DHT22;5779;64.178;15.432;2023-07-20T09:41:05;18.50;99.90
11446;DHT22;5779;64.178;15.432;2023-07-20T09:43:54;18.20;99.90
11446;DHT22;5779;64.178;15.432;2023-07-20T09:46:45;18.40;99.90
11446;DHT22;5779;64.178;15.432;2023-07-20T09:49:32;18.70;99.90
11446;DHT22;5779;64.178;15.432;2023-07-20T09:52:20;18.60;99.90
11446;DHT22;5779;64.178;15.432;2023-07-20T09:55:09;18.40;99.90
11446;DHT22;5779;64.178;15.432;2023-07-20T09:57:57;18.30;99.90
11446;DHT22;5779;64.178;15.432;2023-07-20T10:00:45;18.60;99.90
11446;DHT22;5779;64.178;15.432;2023-07-20T10:03:34;18.80;99.90
11446;DHT22;5779;64.178;15.432;2023-07-20T10:06:24;19.00;99.90
11446;DHT22;5779;64.178;15.432;2023-07-20T10:09:15;18.80;99.90
11446;DHT22;5779;64.178;15.432;2023-07-20T10:12:05;18.40;99.90
11446;DHT22;5779;64.178;15.432;2023-07-20T10:14:57;18.00;99.90
11446;DHT22;5779;64.178;15.432;2023-07-20T10:17:56;17.90;99.90
11446;DHT22;5779;64.178;15.432;2023-07-20T10:20:45;18.00;99.90
11446;DHT22;5779;64.178;15.432;2023-07-20T10:23:33;18.20;99.90
11446;DHT22;5779;64.178;15.432;2023-07-20T10:26:20;18.60;99.90
11446;DHT22;5779;64.178;15.432;2023-07-20T10:29:09;19.10;99.90
11446;DHT22;5779;64.178;15.432;2023-07-20T10:31:56;19.40;99.90
11446;DHT22;5779;64.178;15.432;2023-07-20T10:34:50;19.40;99.90
11446;DHT22;5779;64.178;15.432;2023-07-20T10:37:49;19.00;99.90
11446;DHT22;5779;64.178;15.432;2023-07-20T10:40:39;18.70;99.90
11446;DHT22;5779;64.178;15.432;2023-07-20T10:43:26;18.90;99.90
11446;DHT22;5779;64.178;15.432;2023-07-20T10:46:16;19.30;99.90
11446;DHT22;5779;64.178;15.432;2023-07-20T10:49:19;19.30;99.90
11446;DHT22;5779;64.178;15.432;2023-07-20T10:52:11;19.20;99.90
11446;DHT22;5779;64.178;15.432;2023-07-20T10:55:10;19.30;99.90
11446;DHT22;5779;64.178;15.432;2023-07-20T10:58:11;19.00;99.90
11446;DHT22;5779;64.178;15.432;2023-07-20T11:01:02;18.90;99.90
11446;DHT22;5779;64.178;15.432;2023-07-20T11:03:51;19.40;99.90
11446;DHT22;5779;64.178;15.432;2023-07-20T11:06:38;19.50;99.90
11446;DHT22;5779;64.178;15.432;2023-07-20T11:09:34;19.70;99.90
11446;DHT22;5779;64.178;15.432;2023-07-20T11:12:21;20.10;99.90
11446;DHT22;5779;64.178;15.432;2023-07-20T11:15:08;19.20;99.90
11446;DHT22;5779;64.178;15.432;2023-07-20T11:18:11;19.20;99.90
11446;DHT22;5779;64.178;15.432;2023-07-20T11:21:00;19.30;99.90
11446;DHT22;5779;64.178;15.432;2023-07-20T11:23:48;19.60;99.90
11446;DHT22;5779;64.178;15.432;2023-07-20T11:26:43;20.00;99.90
11446;DHT22;5779;64.178;15.432;2023-07-20T11:29:30;20.30;99.90
11446;DHT22;5779;64.178;15.432;2023-07-20T11:32:21;20.40;99.90
11446;DHT22;5779;64.178;15.432;2023-07-20T11:35:12;19.50;99.90
11446;DHT22;5779;64.178;15.432;2023-07-20T11:38:01;19.00;99.90
11446;DHT22;5779;64.178;15.432;2023-07-20T11:40:48;19.30;99.90
11446;DHT22;5779;64.178;15.432;2023-07-20T11:43:35;19.50;99.90
11446;DHT22;5779;64.178;15.432;2023-07-20T11:46:23;19.10;99.90
11446;DHT22;5779;64.178;15.432;2023-07-20T11:49:10;19.20;99.90
11446;DHT22;5779;64.178;15.432;2023-07-20T11:51:57;19.60;99.90
11446;DHT22;5779;64.178;15.432;2023-07-20T11:54:46;20.20;99.90
11446;DHT22;5779;64.178;15.432;2023-07-20T11:57:34;20.30;99.90
11446;DHT22;5779;64.178;15.432;2023-07-20T12:00:25;20.90;99.90
11446;DHT22;5779;64.178;15.432;2023-07-20T12:03:12;21.30;99.90
11446;DHT22;5779;64.178;15.432;2023-07-20T12:06:06;20.30;99.90
11446;DHT22;5779;64.178;15.432;2023-07-20T12:08:55;19.10;99.90
11446;DHT22;5779;64.178;15.432;2023-07-20T12:11:45;19.20;99.90
11446;DHT22;5779;64.178;15.432;2023-07-20T12:14:35;19.60;99.90
11446;DHT22;5779;64.178;15.432;2023-07-20T12:17:22;19.20;99.90
11446;DHT22;5779;64.178;15.432;2023-07-20T12:20:09;19.30;99.90
11446;DHT22;5779;64.178;15.432;2023-07-20T12:22:58;19.40;99.90
11446;DHT22;5779;64.178;15.432;2023-07-20T12:25:46;19.10;99.90
11446;DHT22;5779;64.178;15.432;2023-07-20T12:28:38;18.60;99.90
11446;DHT22;5779;64.178;15.432;2023-07-20T12:31:27;18.10;99.90
11446;DHT22;5779;64.178;15.432;2023-07-20T12:34:15;17.50;99.90
11446;DHT22;5779;64.178;15.432;2023-07-20T12:37:04;17.00;99.90
11446;DHT22;5779;64.178;15.432;2023-07-20T12:39:51;16.90;99.90
11446;DHT22;5779;64.178;15.432;2023-07-20T12:42:38;17.10;99.90
11446;DHT22;5779;64.178;15.432;2023-07-20T12:45:27;17.10;99.90
11446;DHT22;5779;64.178;15.432;2023-07-20T12:48:14;17.40;99.90
11446;DHT22;5779;64.178;15.432;2023-07-20T12:51:01;17.70;99.90
11446;DHT22;5779;64.178;15.432;2023-07-20T12:53:48;17.10;99.90
11446;DHT22;5779;64.178;15.432;2023-07-20T12:56:35;17.40;99.90
11446;DHT22;5779;64.178;15.432;2023-07-20T12:59:22;18.00;99.90
11446;DHT22;5779;64.178;15.432;2023-07-20T13:02:10;18.20;99.90
11446;DHT22;5779;64.178;15.432;2023-07-20T13:04:58;18.50;99.90
11446;DHT22;5779;64.178;15.432;2023-07-20T13:07:45;18.60;99.90
11446;DHT22;5779;64.178;15.432;2023-07-20T13:10:32;18.60;99.90
11446;DHT22;5779;64.178;15.432;2023-07-20T13:13:19;18.80;99.90
11446;DHT22;5779;64.178;15.432;2023-07-20T13:16:06;19.10;99.90
11446;DHT22;5779;64.178;15.432;2023-07-20T13:18:54;19.40;99.90
11446;DHT22;5779;64.178;15.432;2023-07-20T13:21:41;19.40;99.90
11446;DHT22;5779;64.178;15.432;2023-07-20T13:24:28;19.50;99.90
11446;DHT22;5779;64.178;15.432;2023-07-20T13:27:15;19.30;99.90
11446;DHT22;5779;64.178;15.432;2023-07-20T13:30:03;19.00;99.90
11446;DHT22;5779;64.178;15.432;2023-07-20T13:32:51;18.40;99.90
11446;DHT22;5779;64.178;15.432;2023-07-20T13:35:40;18.00;99.90
11446;DHT22;5779;64.178;15.432;2023-07-20T13:38:26;17.90;99.90
11446;DHT22;5779;64.178;15.432;2023-07-20T13:41:14;17.40;99.90
11446;DHT22;5779;64.178;15.432;2023-07-20T13:44:01;17.40;99.90
11446;DHT22;5779;64.178;15.432;2023-07-20T13:46:48;17.40;99.90
11446;DHT22;5779;64.178;15.432;2023-07-20T13:49:35;17.50;99.90
11446;DHT22;5779;64.178;15.432;2023-07-20T13:52:23;17.50;99.90
11446;DHT22;5779;64.178;15.432;2023-07-20T13:55:10;17.70;99.90
11446;DHT22;5779;64.178;15.432;2023-07-20T13:57:57;18.10;99.90
11446;DHT22;5779;64.178;15.432;2023-07-20T14:00:44;18.10;99.90
11446;DHT22;5779;64.178;15.432;2023-07-20T14:03:31;18.00;99.90
11446;DHT22;5779;64.178;15.432;2023-07-20T14:06:18;17.90;99.90
11446;DHT22;5779;64.178;15.432;2023-07-20T14:09:06;17.90;99.90
11446;DHT22;5779;64.178;15.432;2023-07-20T14:11:53;18.10;99.90
11446;DHT22;5779;64.178;15.432;2023-07-20T14:14:40;18.40;99.90
11446;DHT22;5779;64.178;15.432;2023-07-20T14:17:28;18.50;99.90
11446;DHT22;5779;64.178;15.432;2023-07-20T14:20:14;18.70;99.90
11446;DHT22;5779;64.178;15.432;2023-07-20T14:23:01;19.10;99.90
11446;DHT22;5779;64.178;15.432;2023-07-20T14:25:49;19.40;99.90
11446;DHT22;5779;64.178;15.432;2023-07-20T14:28:37;19.30;99.90
11446;DHT22;5779;64.178;15.432;2023-07-20T14:31:24;19.00;99.90
11446;DHT22;5779;64.178;15.432;2023-07-20T14:34:11;18.70;99.90
11446;DHT22;5779;64.178;15.432;2023-07-20T14:37:00;18.40;99.90
11446;DHT22;5779;64.178;15.432;2023-07-20T14:39:48;18.60;99.90
11446;DHT22;5779;64.178;15.432;2023-07-20T14:42:36;18.60;99.90
11446;DHT22;5779;64.178;15.432;2023-07-20T14:45:23;18.40;99.90
11446;DHT22;5779;64.178;15.432;2023-07-20T14:48:10;18.30;99.90
11446;DHT22;5779;64.178;15.432;2023-07-20T14:50:57;18.30;99.90
11446;DHT22;5779;64.178;15.432;2023-07-20T14:53:43;18.30;99.90
11446;DHT22;5779;64.178;15.432;2023-07-20T14:56:30;18.20;99.90
11446;DHT22;5779;64.178;15.432;2023-07-20T14:59:19;18.30;99.90
11446;DHT22;5779;64.178;15.432;2023-07-20T15:02:06;18.50;99.90
11446;DHT22;5779;64.178;15.432;2023-07-20T15:04:53;18.60;99.90
11446;DHT22;5779;64.178;15.432;2023-07-20T15:07:42;18.30;99.90
11446;DHT22;5779;64.178;15.432;2023-07-20T15:10:29;18.20;99.90
11446;DHT22;5779;64.178;15.432;2023-07-20T15:13:18;17.90;99.90
11446;DHT22;5779;64.178;15.432;2023-07-20T15:16:06;18.00;99.90
11446;DHT22;5779;64.178;15.432;2023-07-20T15:18:53;18.00;99.90
11446;DHT22;5779;64.178;15.432;2023-07-20T15:21:40;18.30;99.90
11446;DHT22;5779;64.178;15.432;2023-07-20T15:24:27;18.30;99.90
11446;DHT22;5779;64.178;15.432;2023-07-20T15:27:13;18.30;99.90
11446;DHT22;5779;64.178;15.432;2023-07-20T15:30:00;18.00;99.90
11446;DHT22;5779;64.178;15.432;2023-07-20T15:32:50;17.90;99.90
11446;DHT22;5779;64.178;15.432;2023-07-20T15:35:36;18.20;99.90
11446;DHT22;5779;64.178;15.432;2023-07-20T15:38:23;18.10;99.90
11446;DHT22;5779;64.178;15.432;2023-07-20T15:41:11;18.40;99.90
11446;DHT22;5779;64.178;15.432;2023-07-20T15:44:00;18.80;99.90
11446;DHT22;5779;64.178;15.432;2023-07-20T15:46:48;19.20;99.90
11446;DHT22;5779;64.178;15.432;2023-07-20T15:49:38;18.80;99.90
11446;DHT22;5779;64.178;15.432;2023-07-20T15:52:25;18.90;99.90
11446;DHT22;5779;64.178;15.432;2023-07-20T15:55:12;18.80;99.90
11446;DHT22;5779;64.178;15.432;2023-07-20T15:57:59;18.20;99.90
11446;DHT22;5779;64.178;15.432;2023-07-20T16:00:46;18.20;99.90
11446;DHT22;5779;64.178;15.432;2023-07-20T16:03:33;18.10;99.90
11446;DHT22;5779;64.178;15.432;2023-07-20T16:06:21;17.70;99.90
11446;DHT22;5779;64.178;15.432;2023-07-20T16:09:08;17.50;99.90
11446;DHT22;5779;64.178;15.432;2023-07-20T16:11:55;17.30;99.90
11446;DHT22;5779;64.178;15.432;2023-07-20T16:14:43;17.40;99.90
11446;DHT22;5779;64.178;15.432;2023-07-20T16:17:30;17.40;99.90
11446;DHT22;5779;64.178;15.432;2023-07-20T16:20:19;16.70;99.90
11446;DHT22;5779;64.178;15.432;2023-07-20T16:23:08;16.30;99.90
11446;DHT22;5779;64.178;15.432;2023-07-20T16:25:55;15.50;99.90
11446;DHT22;5779;64.178;15.432;2023-07-20T16:28:42;15.60;99.90
11446;DHT22;5779;64.178;15.432;2023-07-20T16:31:30;15.80;99.90
11446;DHT22;5779;64.178;15.432;2023-07-20T16:34:17;16.10;99.90
11446;DHT22;5779;64.178;15.432;2023-07-20T16:37:04;15.60;99.90
11446;DHT22;5779;64.178;15.432;2023-07-20T16:39:53;15.20;99.90
11446;DHT22;5779;64.178;15.432;2023-07-20T16:42:40;14.90;99.90
11446;DHT22;5779;64.178;15.432;2023-07-20T16:45:27;14.50;99.90
11446;DHT22;5779;64.178;15.432;2023-07-20T16:48:14;14.20;99.90
11446;DHT22;5779;64.178;15.432;2023-07-20T16:51:02;14.10;99.90
11446;DHT22;5779;64.178;15.432;2023-07-20T16:53:49;14.00;99.90
11446;DHT22;5779;64.178;15.432;2023-07-20T16:56:37;14.40;99.90
11446;DHT22;5779;64.178;15.432;2023-07-20T16:59:25;14.70;99.90
11446;DHT22;5779;64.178;15.432;2023-07-20T17:02:13;15.00;99.90
11446;DHT22;5779;64.178;15.432;2023-07-20T17:05:00;15.10;99.90
11446;DHT22;5779;64.178;15.432;2023-07-20T17:07:47;15.30;99.90
11446;DHT22;5779;64.178;15.432;2023-07-20T17:10:40;15.60;99.90
11446;DHT22;5779;64.178;15.432;2023-07-20T17:13:28;15.60;99.90
11446;DHT22;5779;64.178;15.432;2023-07-20T17:16:17;15.70;99.90
11446;DHT22;5779;64.178;15.432;2023-07-20T17:19:04;15.90;99.90
11446;DHT22;5779;64.178;15.432;2023-07-20T17:21:53;15.70;99.90
11446;DHT22;5779;64.178;15.432;2023-07-20T17:24:40;15.50;99.90
11446;DHT22;5779;64.178;15.432;2023-07-20T17:27:26;15.40;99.90
11446;DHT22;5779;64.178;15.432;2023-07-20T17:30:15;15.00;99.90
11446;DHT22;5779;64.178;15.432;2023-07-20T17:33:02;14.80;99.90
11446;DHT22;5779;64.178;15.432;2023-07-20T17:35:49;14.80;99.90
11446;DHT22;5779;64.178;15.432;2023-07-20T17:38:36;14.70;99.90
11446;DHT22;5779;64.178;15.432;2023-07-20T17:41:23;14.60;99.90
11446;DHT22;5779;64.178;15.432;2023-07-20T17:44:09;13.80;99.90